Time;durP1;ratioP1;P1;durP2;ratioP2;P2;SDS_P1;SDS_P2;PMS_P1;PMS_P2;Temp;Humidity;BMP_temperature;BMP_pressure;BME280_temperature;BME280_humidity;BME280_pressure;Samples;Min_cycle;Max_cycle;Signal;HPM_P1;HPM_P2
2022/09/21 00:04:10;;;;;;;2.85;1.70;;;;;;;5.80;100.00;99227.59;15279876;19;20347;-58
2022/09/21 00:09:37;;;;;;;2.10;1.90;;;;;;;5.75;100.00;99237.75;15274556;19;20022;-58
2022/09/21 00:15:01;;;;;;;2.38;2.17;;;;;;;5.67;100.00;99242.81;15277746;19;20014;-57
2022/09/21 00:20:27;;;;;;;4.57;2.25;;;;;;;5.63;100.00;99241.31;15273874;19;20018;-58
2022/09/21 00:25:55;;;;;;;2.40;2.08;;;;;;;5.57;100.00;99236.41;15268882;19;20015;-59
2022/09/21 00:31:20;;;;;;;2.47;2.28;;;;;;;5.53;100.00;99241.97;15274650;19;20044;-59
2022/09/21 00:36:45;;;;;;;1.90;1.80;;;;;;;5.51;100.00;99245.72;15269767;19;20025;-58
2022/09/21 00:42:18;;;;;;;3.20;2.10;;;;;;;5.48;100.00;99246.78;15279562;19;20006;-58
2022/09/21 00:47:46;;;;;;;2.10;1.67;;;;;;;5.45;100.00;99249.69;15273015;19;20779;-57
2022/09/21 00:53:11;;;;;;;2.75;1.77;;;;;;;5.39;100.00;99255.44;15269801;19;20011;-51
2022/09/21 00:58:41;;;;;;;1.75;1.33;;;;;;;5.34;100.00;99260.28;15272593;19;20022;-53
2022/09/21 01:04:07;;;;;;;2.50;1.80;;;;;;;5.32;100.00;99270.22;15277413;19;20596;-50
2022/09/21 01:09:32;;;;;;;2.92;2.60;;;;;;;5.21;100.00;99273.63;15275413;19;20014;-50
2022/09/21 01:15:14;;;;;;;3.25;2.60;;;;;;;5.15;100.00;99272.22;15273704;19;20018;-52
2022/09/21 01:20:53;;;;;;;;;;;;;;;5.12;100.00;99275.09;15276301;19;20461;-50
2022/09/21 01:26:34;;;;;;;2.80;2.40;;;;;;;5.08;100.00;99273.63;15269557;19;19926;-49
2022/09/21 01:32:19;;;;;;;3.22;2.60;;;;;;;5.02;100.00;99274.00;15269345;19;20018;-49
2022/09/21 01:37:48;;;;;;;4.05;2.22;;;;;;;4.98;100.00;99272.53;15264679;19;20021;-48
2022/09/21 01:43:15;;;;;;;39.83;2.80;;;;;;;4.94;100.00;99272.75;15264184;19;20334;-50
2022/09/21 01:48:48;;;;;;;116.03;3.53;;;;;;;4.91;100.00;99288.97;15269152;19;20034;-49
2022/09/21 01:54:19;;;;;;;32.25;2.40;;;;;;;4.87;100.00;99287.47;15259021;19;20015;-51
2022/09/21 01:59:52;;;;;;;110.33;4.17;;;;;;;4.82;100.00;99284.25;15267789;19;20010;-53
2022/09/21 02:05:27;;;;;;;602.63;10.60;;;;;;;4.80;100.00;99280.81;15264426;19;20034;-48
2022/09/21 02:10:54;;;;;;;309.88;6.07;;;;;;;4.70;100.00;99280.59;15271806;19;20043;-50
2022/09/21 02:16:40;;;;;;;233.68;4.97;;;;;;;4.67;100.00;99280.78;15273768;19;20575;-51
2022/09/21 02:22:13;;;;;;;151.02;3.35;;;;;;;4.67;100.00;99288.81;15270371;19;20014;-52
2022/09/21 02:27:46;;;;;;;104.07;3.10;;;;;;;4.66;100.00;99294.22;15263319;19;20038;-48
2022/09/21 02:33:14;;;;;;;255.02;5.30;;;;;;;4.60;100.00;99296.38;15257279;19;20026;-52
2022/09/21 02:38:45;;;;;;;322.88;5.97;;;;;;;4.53;100.00;99292.38;15269695;19;20014;-49
2022/09/21 02:44:17;;;;;;;88.40;3.07;;;;;;;4.53;100.00;99304.88;15265678;19;20029;-52
2022/09/21 02:49:43;;;;;;;;;;;;;;;4.49;100.00;99290.88;15272906;19;20259;-51
2022/09/21 02:55:12;;;;;;;20.30;1.88;;;;;;;4.44;100.00;99301.84;15271538;19;19927;-47
2022/09/21 03:00:36;;;;;;;239.45;5.18;;;;;;;4.43;100.00;99299.28;15277968;19;20018;-49
2022/09/21 03:06:02;;;;;;;61.90;2.25;;;;;;;4.42;100.00;99302.91;15275315;19;20014;-46
2022/09/21 03:11:29;;;;;;;280.92;5.75;;;;;;;4.41;100.00;99301.22;15279794;19;20382;-48
2022/09/21 03:16:54;;;;;;;195.55;3.95;;;;;;;4.39;100.00;99298.63;15269908;19;20038;-45
2022/09/21 03:22:20;;;;;;;364.80;6.75;;;;;;;4.34;100.00;99303.41;15283719;19;20434;-46
2022/09/21 03:27:49;;;;;;;76.07;2.85;;;;;;;4.29;100.00;99308.19;15273822;19;20013;-46
2022/09/21 03:33:14;;;;;;;79.53;2.47;;;;;;;4.24;100.00;99308.47;15271091;19;20011;-46
2022/09/21 03:38:39;;;;;;;172.20;3.70;;;;;;;4.25;100.00;99312.00;15276732;19;20014;-45
2022/09/21 03:44:06;;;;;;;18.52;1.55;;;;;;;4.22;100.00;99318.38;15272622;19;20023;-46
2022/09/21 03:49:31;;;;;;;12.00;1.30;;;;;;;4.19;100.00;99317.75;15273208;19;20015;-45
2022/09/21 03:54:55;;;;;;;245.82;4.68;;;;;;;4.14;100.00;99320.69;15270107;19;20046;-45
2022/09/21 04:00:23;;;;;;;165.93;3.28;;;;;;;4.05;100.00;99318.63;15272985;19;20027;-44
2022/09/21 04:05:48;;;;;;;249.02;4.53;;;;;;;3.96;100.00;99328.91;15267936;19;20018;-45
2022/09/21 04:11:13;;;;;;;333.85;6.90;;;;;;;3.92;100.00;99332.75;15191443;19;20014;-45
2022/09/21 04:16:40;;;;;;;182.63;4.32;;;;;;;3.90;100.00;99325.75;15269624;19;20342;-45
2022/09/21 04:22:05;;;;;;;79.57;2.63;;;;;;;3.91;100.00;99335.47;15280265;19;20030;-45
2022/09/21 04:27:29;;;;;;;52.95;3.22;;;;;;;3.90;100.00;99337.31;15271035;19;20347;-46
2022/09/21 04:32:56;;;;;;;59.50;3.00;;;;;;;3.93;100.00;99342.44;15272991;19;20014;-47
2022/09/21 04:38:20;;;;;;;70.18;2.33;;;;;;;3.94;100.00;99341.47;15267841;19;20634;-46
2022/09/21 04:43:46;;;;;;;201.93;3.75;;;;;;;3.94;100.00;99346.81;15274539;19;20473;-46
2022/09/21 04:49:13;;;;;;;15.20;1.30;;;;;;;3.92;100.00;99348.72;15270723;19;20042;-45
2022/09/21 04:54:38;;;;;;;63.15;2.00;;;;;;;3.93;100.00;99354.91;15263067;19;20018;-49
2022/09/21 05:00:03;;;;;;;130.55;2.60;;;;;;;3.93;100.00;99355.78;15273026;19;20014;-45
2022/09/21 05:05:30;;;;;;;52.00;1.70;;;;;;;3.96;100.00;99360.91;15261739;19;20011;-46
2022/09/21 05:10:54;;;;;;;439.92;8.75;;;;;;;3.87;100.00;99361.47;15267033;19;20508;-45
2022/09/21 05:16:20;;;;;;;213.85;4.47;;;;;;;3.92;100.00;99367.41;15273652;19;20010;-46
2022/09/21 05:21:48;;;;;;;134.95;3.42;;;;;;;3.91;100.00;99370.13;15271453;19;20029;-45
2022/09/21 05:27:13;;;;;;;216.45;4.30;;;;;;;3.90;100.00;99366.63;15268639;19;20018;-47
2022/09/21 05:32:50;;;;;;;64.93;2.22;;;;;;;3.96;100.00;99376.06;15274424;19;20018;-46
2022/09/21 05:38:20;;;;;;;186.35;3.90;;;;;;;3.99;100.00;99382.03;15269347;19;20031;-45
2022/09/21 05:43:45;;;;;;;221.43;4.82;;;;;;;3.98;100.00;99384.81;15267982;19;20018;-46
2022/09/21 05:49:20;;;;;;;193.88;3.78;;;;;;;4.05;100.00;99385.28;15266248;19;20370;-47
2022/09/21 05:54:59;;;;;;;616.67;16.33;;;;;;;4.02;100.00;99402.31;15264966;19;20053;-45
2022/09/21 06:00:25;;;;;;;459.02;11.88;;;;;;;4.00;100.00;99402.44;15269539;19;20022;-52
2022/09/21 06:05:51;;;;;;;486.48;11.10;;;;;;;4.05;100.00;99411.97;15257993;19;20068;-54
2022/09/21 06:11:19;;;;;;;372.88;8.88;;;;;;;4.05;100.00;99414.63;15265728;19;20014;-55
2022/09/21 06:16:47;;;;;;;376.60;8.73;;;;;;;4.08;100.00;99411.75;15261191;19;20034;-51
2022/09/21 06:22:12;;;;;;;294.25;6.47;;;;;;;4.12;100.00;99414.13;15273626;19;20018;-51
2022/09/21 06:27:39;;;;;;;386.00;9.38;;;;;;;4.23;100.00;99416.13;15278827;19;20059;-55
2022/09/21 06:33:05;;;;;;;519.03;12.20;;;;;;;4.20;100.00;99410.97;15282341;19;20053;-51
2022/09/21 06:38:30;;;;;;;284.20;5.82;;;;;;;4.25;100.00;99418.69;15277340;19;20018;-55
2022/09/21 06:43:58;;;;;;;124.18;3.42;;;;;;;4.39;100.00;99428.53;15276061;19;20035;-56
2022/09/21 06:49:22;;;;;;;353.33;8.00;;;;;;;4.41;100.00;99421.28;15277545;19;20019;-56
2022/09/21 06:54:47;;;;;;;119.70;3.50;;;;;;;4.51;100.00;99426.88;15274224;19;20019;-51
2022/09/21 07:00:16;;;;;;;338.05;7.80;;;;;;;4.59;100.00;99429.88;15282875;19;20022;-53
2022/09/21 07:05:41;;;;;;;78.90;2.45;;;;;;;4.68;100.00;99428.44;15270899;19;20045;-54
2022/09/21 07:11:12;;;;;;;236.77;5.43;;;;;;;4.84;100.00;99437.19;15279439;19;20046;-54
2022/09/21 07:16:39;;;;;;;373.07;8.37;;;;;;;4.94;100.00;99442.78;15266771;19;20015;-54
2022/09/21 07:22:03;;;;;;;118.43;3.13;;;;;;;5.04;100.00;99451.94;15280560;19;20030;-53
2022/09/21 07:27:30;;;;;;;535.80;12.50;;;;;;;5.13;100.00;99463.78;15274070;19;20022;-51
2022/09/21 07:32:57;;;;;;;999.35;26.00;;;;;;;5.22;100.00;99452.53;15279214;19;20036;-51
2022/09/21 07:38:22;;;;;;;823.72;20.65;;;;;;;5.36;100.00;99466.75;15273109;19;20374;-51
2022/09/21 07:43:46;;;;;;;415.80;10.05;;;;;;;5.57;100.00;99468.97;15279659;19;20015;-53
2022/09/21 07:49:15;;;;;;;232.07;6.65;;;;;;;5.69;100.00;99468.16;15269047;19;20022;-54
2022/09/21 07:54:39;;;;;;;995.65;23.67;;;;;;;5.78;100.00;99472.00;15268753;19;20006;-50
2022/09/21 08:00:08;;;;;;;418.40;9.57;;;;;;;5.93;100.00;99473.63;15275327;19;20366;-54
2022/09/21 08:05:35;;;;;;;141.75;4.47;;;;;;;6.15;100.00;99473.03;15267617;19;20018;-52
2022/09/21 08:11:04;;;;;;;287.27;7.50;;;;;;;6.35;100.00;99478.78;15279103;19;20358;-54
2022/09/21 08:16:29;;;;;;;4.93;1.98;;;;;;;6.63;100.00;99487.56;15266506;19;20046;-55
2022/09/21 08:22:03;;;;;;;20.30;2.70;;;;;;;6.69;100.00;99487.09;15274946;19;20018;-53
2022/09/21 08:27:28;;;;;;;4.43;2.70;;;;;;;6.92;100.00;99488.13;15277781;19;20026;-53
2022/09/21 08:32:53;;;;;;;4.25;3.03;;;;;;;7.11;100.00;99491.28;15278698;19;20019;-55
2022/09/21 08:38:20;;;;;;;3.70;2.80;;;;;;;7.28;100.00;99493.56;15270150;19;20010;-49
2022/09/21 08:43:49;;;;;;;3.97;3.25;;;;;;;7.46;100.00;99494.03;15276615;19;20037;-51
2022/09/21 08:49:17;;;;;;;3.35;3.05;;;;;;;7.72;100.00;99497.41;15272222;19;20015;-46
2022/09/21 08:54:51;;;;;;;3.05;2.60;;;;;;;7.94;100.00;99502.97;15267045;19;20018;-48
2022/09/21 09:00:19;;;;;;;5.43;2.50;;;;;;;8.21;100.00;99494.59;15274591;19;20011;-45
2022/09/21 09:05:54;;;;;;;3.53;2.08;;;;;;;8.46;100.00;99476.56;15271354;19;20014;-47
2022/09/21 09:11:34;;;;;;;1.65;1.55;;;;;;;8.73;100.00;99470.84;15274101;19;20362;-47
2022/09/21 09:17:10;;;;;;;3.67;1.73;;;;;;;9.03;100.00;99453.22;15264575;19;20042;-46
2022/09/21 09:22:40;;;;;;;4.05;1.88;;;;;;;9.35;100.00;99446.16;15276712;19;20015;-45
2022/09/21 09:28:14;;;;;;;1.37;1.20;;;;;;;9.64;100.00;99426.69;15271303;19;20385;-54
2022/09/21 09:33:49;;;;;;;4.95;1.35;;;;;;;9.88;100.00;99402.19;15271600;19;20021;-56
2022/09/21 09:39:20;;;;;;;2.00;1.20;;;;;;;10.08;100.00;99403.16;15273206;19;20018;-52
2022/09/21 09:45:18;;;;;;;2.87;1.00;;;;;;;10.31;100.00;99395.78;14756381;19;10000643;-55
2022/09/21 09:50:46;;;;;;;3.30;1.20;;;;;;;10.66;100.00;99393.63;15272699;19;20017;-53
2022/09/21 09:56:13;;;;;;;3.17;0.95;;;;;;;10.88;100.00;99389.00;15263039;19;20061;-55
2022/09/21 10:01:48;;;;;;;3.38;1.17;;;;;;;11.12;100.00;99382.34;15274829;19;20015;-54
2022/09/21 10:07:19;;;;;;;4.68;1.17;;;;;;;11.43;100.00;99371.44;15261206;19;20097;-54
2022/09/21 10:12:45;;;;;;;3.40;1.00;;;;;;;11.70;100.00;99367.97;15274765;19;20015;-55
2022/09/21 10:18:20;;;;;;;3.58;1.10;;;;;;;11.97;100.00;99359.09;15265286;19;20014;-55
2022/09/21 10:23:45;;;;;;;2.00;0.80;;;;;;;12.35;100.00;99355.56;15268387;19;20018;-53
2022/09/21 10:29:22;;;;;;;6.00;1.10;;;;;;;12.54;100.00;99343.81;15259511;19;20022;-56
2022/09/21 10:35:09;;;;;;;1.77;0.68;;;;;;;12.68;100.00;99345.13;15262999;19;20022;-55
2022/09/21 10:40:38;;;;;;;3.83;1.00;;;;;;;12.58;100.00;99346.03;15269842;19;20022;-53
2022/09/21 10:46:04;;;;;;;3.60;1.00;;;;;;;12.60;100.00;99338.63;15261791;19;20449;-52
2022/09/21 10:51:40;;;;;;;3.53;0.80;;;;;;;12.62;100.00;99336.63;15267998;19;20057;-53
2022/09/21 10:57:09;;;;;;;2.78;0.70;;;;;;;12.78;100.00;99319.75;15261662;19;20023;-45
2022/09/21 11:02:45;;;;;;;2.28;0.70;;;;;;;13.07;100.00;99331.34;15268574;19;20007;-48
2022/09/21 11:08:18;;;;;;;4.35;0.90;;;;;;;13.10;100.00;99331.03;15265216;19;20571;-47
2022/09/21 11:13:46;;;;;;;1.83;0.70;;;;;;;12.90;100.00;99328.47;15283480;19;20037;-48
2022/09/21 11:19:19;;;;;;;2.70;0.80;;;;;;;12.81;100.00;99329.38;15281699;19;20572;-51
2022/09/21 11:24:56;;;;;;;3.63;0.90;;;;;;;12.99;100.00;99328.56;15273109;19;20488;-48
2022/09/21 11:30:34;;;;;;;2.50;0.68;;;;;;;13.08;100.00;99320.34;15280986;19;20031;-48
2022/09/21 11:36:07;;;;;;;1.75;0.70;;;;;;;13.18;100.00;99320.28;15273416;19;20014;-45
2022/09/21 11:41:58;;;;;;;1.75;0.57;;;;;;;13.39;100.00;99321.78;15283853;19;20011;-43
2022/09/21 11:47:31;;;;;;;2.50;0.85;;;;;;;13.57;100.00;99313.66;15278498;19;20022;-46
2022/09/21 11:53:17;;;;;;;2.17;0.68;;;;;;;13.79;100.00;99309.56;15277081;19;20023;-47
2022/09/21 11:58:54;;;;;;;2.20;0.63;;;;;;;13.92;100.00;99305.59;15277221;19;20014;-47
2022/09/21 12:04:43;;;;;;;4.63;0.80;;;;;;;14.21;100.00;99304.34;15279087;19;20089;-43
2022/09/21 12:10:40;;;;;;;4.90;0.73;;;;;;;14.24;100.00;99287.78;15275678;19;20416;-50
2022/09/21 12:16:13;;;;;;;1.85;0.63;;;;;;;14.49;100.00;99283.25;15275269;19;20014;-49
2022/09/21 12:21:43;;;;;;;2.25;0.70;;;;;;;14.82;100.00;99285.22;15278354;19;20027;-45
2022/09/21 12:27:17;;;;;;;1.15;0.55;;;;;;;14.91;100.00;99279.66;15269353;19;20011;-45
2022/09/21 12:32:55;;;;;;;2.58;0.70;;;;;;;14.90;100.00;99275.25;15281741;19;20011;-46
2022/09/21 12:38:25;;;;;;;2.78;0.68;;;;;;;14.89;100.00;99275.41;15272436;19;20014;-46
2022/09/21 12:43:55;;;;;;;2.58;0.88;;;;;;;14.65;100.00;99285.16;15280590;19;20022;-45
2022/09/21 12:49:27;;;;;;;2.63;0.60;;;;;;;14.17;100.00;99288.41;15278393;19;20362;-49
2022/09/21 12:55:01;;;;;;;1.75;0.60;;;;;;;13.95;100.00;99284.44;15263285;19;20014;-48
2022/09/21 13:00:28;;;;;;;4.68;0.70;;;;;;;13.83;100.00;99281.13;15276602;19;20021;-49
2022/09/21 13:06:21;;;;;;;2.35;0.77;;;;;;;13.75;100.00;99278.41;15271574;19;20025;-44
2022/09/21 13:11:59;;;;;;;1.75;0.68;;;;;;;13.78;100.00;99278.09;15270699;19;20424;-45
2022/09/21 13:17:26;;;;;;;1.95;0.60;;;;;;;13.74;100.00;99276.69;15279224;19;20010;-47
2022/09/21 13:22:54;;;;;;;1.08;0.55;;;;;;;13.82;100.00;99267.78;15276621;19;20090;-46
2022/09/21 13:28:23;;;;;;;1.92;0.52;;;;;;;13.84;100.00;99266.59;15274164;19;20477;-44
2022/09/21 13:33:48;;;;;;;2.78;0.60;;;;;;;14.05;100.00;99265.34;15276040;19;20022;-45
2022/09/21 13:39:20;;;;;;;3.08;0.80;;;;;;;14.03;100.00;99253.81;15272248;19;20023;-44
2022/09/21 13:44:50;;;;;;;1.95;0.63;;;;;;;14.29;100.00;99252.88;15266684;19;20053;-46
2022/09/21 13:50:24;;;;;;;2.80;0.80;;;;;;;14.64;100.00;99253.66;15269375;19;20014;-44
2022/09/21 13:56:10;;;;;;;2.33;0.70;;;;;;;14.94;100.00;99240.47;15275088;19;20053;-47
2022/09/21 14:01:38;;;;;;;2.60;0.75;;;;;;;15.43;100.00;99239.56;15275131;19;20386;-49
2022/09/21 14:07:13;;;;;;;2.58;0.60;;;;;;;15.28;100.00;99236.72;15258784;19;20018;-45
2022/09/21 14:12:44;;;;;;;2.85;0.70;;;;;;;15.64;100.00;99230.88;15273348;19;20018;-51
2022/09/21 14:18:45;;;;;;;2.58;0.70;;;;;;;15.69;100.00;99231.22;15268570;19;20011;-49
2022/09/21 14:24:23;;;;;;;1.57;0.70;;;;;;;15.41;100.00;99228.03;15274634;19;20378;-47
2022/09/21 14:29:58;;;;;;;1.92;0.70;;;;;;;15.31;100.00;99233.66;15268251;19;20561;-45
2022/09/21 14:35:28;;;;;;;2.75;0.90;;;;;;;15.07;100.00;99232.69;15268749;19;20041;-52
2022/09/21 14:40:57;;;;;;;1.80;0.70;;;;;;;14.84;100.00;99228.94;15270634;19;20033;-55
2022/09/21 14:46:52;;;;;;;1.77;0.57;;;;;;;14.65;100.00;99228.22;15272725;19;20026;-55
2022/09/21 14:52:27;;;;;;;4.15;0.70;;;;;;;14.66;100.00;99224.47;15281240;19;20055;-51
2022/09/21 14:58:13;;;;;;;2.95;0.70;;;;;;;14.91;100.00;99219.09;15281297;19;20010;-53
2022/09/21 15:03:57;;;;;;;1.33;0.52;;;;;;;15.05;100.00;99214.88;15204783;19;20018;-55
2022/09/21 15:15:35;;;;;;;3.38;0.90;;;;;;;15.62;100.00;99205.75;15281567;19;20014;-80
2022/09/21 15:21:04;;;;;;;1.45;0.52;;;;;;;16.02;100.00;99206.66;15339634;19;20007;-79
2022/09/21 15:26:31;;;;;;;1.65;0.65;;;;;;;16.51;100.00;99196.53;15319674;19;20066;-78
2022/09/21 15:31:56;;;;;;;2.25;0.70;;;;;;;16.61;100.00;99191.69;15301609;19;20018;-78
2022/09/21 15:37:24;;;;;;;1.90;0.80;;;;;;;16.72;100.00;99200.44;15290116;19;20018;-78
2022/09/21 15:43:03;;;;;;;1.33;0.50;;;;;;;16.85;92.78;99195.22;15301199;19;20014;-79
2022/09/21 15:48:33;;;;;;;1.23;0.68;;;;;;;16.81;98.73;99193.91;15291147;19;20014;-79
2022/09/21 15:54:05;;;;;;;0.90;0.50;;;;;;;16.76;93.32;99194.44;15297808;19;20006;-79
2022/09/21 15:59:32;;;;;;;2.35;0.60;;;;;;;16.84;100.00;99201.69;15297451;19;20018;-78
2022/09/21 16:04:56;;;;;;;2.03;0.63;;;;;;;16.93;99.17;99191.59;15304982;19;20018;-80
2022/09/21 16:10:51;;;;;;;2.08;0.50;;;;;;;16.58;100.00;99189.31;15305934;19;20019;-80
2022/09/21 16:16:18;;;;;;;2.65;0.68;;;;;;;16.42;100.00;99189.41;15302570;19;20055;-80
2022/09/21 16:21:44;;;;;;;2.15;0.82;;;;;;;16.64;100.00;99194.00;15311943;19;20014;-83
2022/09/21 16:27:08;;;;;;;2.88;0.75;;;;;;;16.61;100.00;99198.97;15311530;19;20023;-79
2022/09/21 16:32:40;;;;;;;1.88;0.70;;;;;;;16.55;100.00;99197.81;15300843;19;20497;-54
2022/09/21 16:38:09;;;;;;;1.90;0.60;;;;;;;16.41;100.00;99204.03;15270508;19;20018;-56
2022/09/21 16:43:34;;;;;;;2.45;0.93;;;;;;;16.18;100.00;99199.41;15281245;19;20090;-55
2022/09/21 16:49:02;;;;;;;1.85;0.90;;;;;;;15.65;100.00;99204.53;15274405;19;20018;-52
2022/09/21 16:54:27;;;;;;;2.30;0.80;;;;;;;15.47;100.00;99196.63;15279813;19;20042;-55
2022/09/21 17:00:00;;;;;;;1.33;0.63;;;;;;;15.03;100.00;99206.88;15276995;19;20011;-57
2022/09/21 17:05:28;;;;;;;1.63;0.63;;;;;;;14.76;100.00;99206.22;15242813;19;20017;-55
2022/09/21 17:10:53;;;;;;;2.38;0.73;;;;;;;14.66;100.00;99205.50;15274072;19;20055;-56
2022/09/21 17:16:18;;;;;;;3.10;0.60;;;;;;;14.48;100.00;99205.66;15271363;19;20074;-54
2022/09/21 17:21:45;;;;;;;1.98;0.80;;;;;;;14.28;100.00;99213.25;15274382;19;20014;-53
2022/09/21 17:27:18;;;;;;;3.65;1.00;;;;;;;13.87;100.00;99209.38;15267798;19;20072;-55
2022/09/21 17:32:48;;;;;;;2.80;1.10;;;;;;;13.73;100.00;99204.59;15273870;19;20037;-56
2022/09/21 17:38:16;;;;;;;3.38;1.00;;;;;;;13.55;100.00;99208.25;15271407;19;20014;-55
2022/09/21 17:43:49;;;;;;;2.00;1.05;;;;;;;13.33;100.00;99215.00;15271946;19;20503;-51
2022/09/21 17:49:14;;;;;;;2.40;1.00;;;;;;;13.12;100.00;99212.66;15272308;19;20039;-55
2022/09/21 17:54:41;;;;;;;2.17;0.75;;;;;;;12.92;100.00;99212.84;15267323;19;20479;-53
2022/09/21 18:00:14;;;;;;;2.60;0.90;;;;;;;12.72;100.00;99217.59;15262221;19;20018;-53
2022/09/21 18:05:39;;;;;;;2.90;1.20;;;;;;;12.50;100.00;99224.34;15269909;19;20026;-53
2022/09/21 18:11:14;;;;;;;2.92;1.30;;;;;;;12.29;100.00;99227.31;15270919;19;20010;-52
2022/09/21 18:16:48;;;;;;;4.68;2.58;;;;;;;12.01;100.00;99233.59;15260416;19;20015;-55
2022/09/21 18:22:35;;;;;;;3.35;2.33;;;;;;;11.80;100.00;99227.56;15275008;19;20434;-52
2022/09/21 18:28:12;;;;;;;3.30;1.20;;;;;;;11.62;100.00;99236.44;15272264;19;20819;-51
2022/09/21 18:33:48;;;;;;;2.60;1.10;;;;;;;11.46;100.00;99236.22;15264640;19;20078;-55
2022/09/21 18:39:27;;;;;;;4.10;1.27;;;;;;;11.33;100.00;99242.78;15266084;19;20026;-55
2022/09/21 18:45:04;;;;;;;2.30;1.30;;;;;;;11.17;100.00;99243.38;15272063;19;20018;-53
2022/09/21 18:50:36;;;;;;;3.55;1.35;;;;;;;10.97;100.00;99249.78;15269392;19;20025;-54
2022/09/21 18:56:02;;;;;;;2.75;1.35;;;;;;;10.79;100.00;99250.53;15269829;19;20485;-51
2022/09/21 19:01:32;;;;;;;2.83;1.23;;;;;;;10.53;100.00;99256.47;15269780;19;20018;-52
2022/09/21 19:07:04;;;;;;;2.85;1.30;;;;;;;10.40;100.00;99261.28;15260411;19;20359;-52
2022/09/21 19:12:34;;;;;;;;;;;;;;;10.30;100.00;99261.22;15267962;19;20014;-55
2022/09/21 19:18:19;;;;;;;5.55;1.80;;;;;;;10.17;100.00;99253.41;15260545;19;20658;-54
2022/09/21 19:24:01;;;;;;;3.78;1.90;;;;;;;10.05;100.00;99263.44;15269050;19;20018;-56
2022/09/21 19:29:54;;;;;;;3.60;1.40;;;;;;;9.96;100.00;99259.72;15270014;19;20029;-57
2022/09/21 19:35:25;;;;;;;4.82;1.20;;;;;;;9.85;100.00;99259.84;15283142;19;20019;-57
2022/09/21 19:40:52;;;;;;;2.65;1.23;;;;;;;9.73;100.00;99259.06;15279723;19;20011;-56
2022/09/21 19:46:26;;;;;;;2.50;1.20;;;;;;;9.62;100.00;99261.84;15271820;19;20374;-57
2022/09/21 19:51:57;;;;;;;3.28;1.10;;;;;;;9.50;100.00;99264.63;15284593;19;20830;-58
2022/09/21 20:03:12;;;;;;;1.83;0.90;;;;;;;9.30;100.00;99265.50;15281656;19;20642;-56
2022/09/21 20:08:47;;;;;;;2.95;1.00;;;;;;;9.22;100.00;99261.66;15274169;19;20014;-57
2022/09/21 20:14:29;;;;;;;4.13;1.10;;;;;;;9.18;100.00;99264.72;15278624;19;20022;-58
2022/09/21 20:19:58;;;;;;;2.40;1.00;;;;;;;9.11;100.00;99264.41;15276424;19;20038;-57
2022/09/21 20:25:31;;;;;;;1.27;0.90;;;;;;;9.04;100.00;99264.09;15280035;19;20015;-59
2022/09/21 20:30:56;;;;;;;3.45;1.30;;;;;;;8.98;100.00;99269.13;15277344;19;20019;-55
2022/09/21 20:36:21;;;;;;;2.58;0.93;;;;;;;8.91;100.00;99263.41;15269773;19;20034;-57
2022/09/21 20:41:50;;;;;;;3.20;1.05;;;;;;;8.84;100.00;99263.09;15276239;19;20374;-61
2022/09/21 20:47:17;;;;;;;1.98;0.95;;;;;;;8.76;100.00;99261.03;15268087;19;20330;-56
2022/09/21 20:52:44;;;;;;;1.58;1.00;;;;;;;8.70;100.00;99266.06;15280882;19;20089;-55
2022/09/21 20:58:12;;;;;;;3.97;1.10;;;;;;;8.61;100.00;99259.63;15269295;19;20018;-57
2022/09/21 21:03:37;;;;;;;2.13;1.10;;;;;;;8.52;100.00;99263.94;15277289;19;20796;-57
2022/09/21 21:09:16;;;;;;;2.83;1.10;;;;;;;8.42;100.00;99257.56;15272342;19;20734;-56
2022/09/21 21:14:44;;;;;;;3.25;1.15;;;;;;;8.32;100.00;99261.03;15276736;19;20018;-60
2022/09/21 21:20:08;;;;;;;5.00;1.40;;;;;;;8.26;100.00;99269.59;15282878;19;20019;-59
2022/09/21 21:25:33;;;;;;;4.53;1.15;;;;;;;8.21;100.00;99265.59;15277682;19;20010;-59
2022/09/21 21:31:03;;;;;;;2.75;1.20;;;;;;;8.13;100.00;99259.00;15276441;19;20041;-60
2022/09/21 21:36:28;;;;;;;2.45;1.30;;;;;;;8.07;100.00;99258.63;15269391;19;20362;-60
2022/09/21 21:41:52;;;;;;;4.47;1.33;;;;;;;7.97;100.00;99267.44;15279084;19;20019;-60
2022/09/21 21:47:19;;;;;;;4.97;1.60;;;;;;;7.85;100.00;99265.75;15266357;19;20014;-60
2022/09/21 21:52:57;;;;;;;2.00;1.30;;;;;;;7.72;100.00;99272.09;15277733;19;20086;-60
2022/09/21 21:58:21;;;;;;;3.95;1.23;;;;;;;7.67;100.00;99266.25;15271416;19;20018;-61
2022/09/21 22:03:50;;;;;;;4.35;1.40;;;;;;;7.61;100.00;99268.56;15275559;19;20363;-60
2022/09/21 22:09:15;;;;;;;3.67;1.50;;;;;;;7.58;100.00;99268.78;15271726;19;20366;-60
2022/09/21 22:14:46;;;;;;;3.53;1.40;;;;;;;7.54;100.00;99274.41;15275400;19;20018;-60
2022/09/21 22:20:14;;;;;;;3.10;1.00;;;;;;;7.48;100.00;99266.84;15270015;19;20015;-60
2022/09/21 22:25:39;;;;;;;3.83;1.20;;;;;;;7.47;100.00;99264.25;15277268;19;20015;-60
2022/09/21 22:31:05;;;;;;;3.30;1.30;;;;;;;7.44;100.00;99261.84;15272420;19;20018;-60
2022/09/21 22:36:34;;;;;;;4.53;1.27;;;;;;;7.39;100.00;99263.06;15264534;19;20461;-60
2022/09/21 22:41:59;;;;;;;1.90;1.17;;;;;;;7.33;100.00;99260.88;15269277;19;20018;-60
2022/09/21 22:47:23;;;;;;;6.00;1.40;;;;;;;7.30;100.00;99265.59;15267428;19;20018;-60
2022/09/21 22:52:50;;;;;;;2.95;1.33;;;;;;;7.23;100.00;99257.19;15268754;19;20645;-60
2022/09/21 22:58:14;;;;;;;2.45;1.25;;;;;;;7.15;100.00;99260.47;15266430;19;20019;-60
2022/09/21 23:03:40;;;;;;;2.13;1.20;;;;;;;7.09;100.00;99253.75;15277308;19;20022;-60
2022/09/21 23:09:08;;;;;;;2.13;1.20;;;;;;;7.03;100.00;99253.38;15286986;19;20833;-60
2022/09/21 23:14:40;;;;;;;2.53;1.38;;;;;;;6.95;100.00;99253.97;15283535;19;20365;-60
2022/09/21 23:20:05;;;;;;;2.60;1.30;;;;;;;6.91;100.00;99257.84;15286251;19;20022;-60
2022/09/21 23:25:32;;;;;;;5.80;1.50;;;;;;;6.85;100.00;99261.00;15280191;19;20046;-60
2022/09/21 23:30:59;;;;;;;3.38;1.40;;;;;;;6.72;100.00;99266.41;15283810;19;20025;-60
2022/09/21 23:36:26;;;;;;;5.15;1.60;;;;;;;6.62;100.00;99259.06;15276638;19;20410;-60
2022/09/21 23:41:53;;;;;;;3.75;1.40;;;;;;;6.56;100.00;99264.91;15285302;19;20024;-60
2022/09/21 23:47:18;;;;;;;3.28;1.55;;;;;;;6.49;100.00;99255.59;15274931;19;20014;-60
2022/09/21 23:52:43;;;;;;;3.67;1.52;;;;;;;6.47;100.00;99261.09;15287427;19;20021;-60
2022/09/21 23:58:10;;;;;;;3.45;1.48;;;;;;;6.42;100.00;99259.72;15282053;19;20038;-60
